Time;durP1;ratioP1;P1;durP2;ratioP2;P2;SDS_P1;SDS_P2;PMS_P1;PMS_P2;Temp;Humidity;BMP_temperature;BMP_pressure;BME280_temperature;BME280_humidity;BME280_pressure;Samples;Min_cycle;Max_cycle;Signal;HPM_P1;HPM_P2
2023/03/07 00:01:22;;;;;;;;;;;;;;;4.54;100.00;96760.03;5078395;28;19956;-66
2023/03/07 00:03:48;;;;;;;;;;;;;;;4.49;100.00;96751.25;5075726;28;19988;-67
2023/03/07 00:06:15;;;;;;;;;;;;;;;4.54;100.00;96749.44;5077628;28;20016;-66
2023/03/07 00:08:41;;;;;;;;;;;;;;;4.66;100.00;96746.63;5078670;28;19933;-65
2023/03/07 00:11:08;;;;;;;;;;;;;;;4.66;100.00;96739.50;5077049;28;20119;-67
2023/03/07 00:13:37;;;;;;;;;;;;;;;4.64;100.00;96746.09;5075301;28;20323;-66
2023/03/07 00:16:05;;;;;;;;;;;;;;;4.50;100.00;96748.34;5075492;28;19985;-67
2023/03/07 00:18:31;;;;;;;;;;;;;;;4.62;100.00;96753.47;5075247;28;19995;-67
2023/03/07 00:20:58;;;;;;;;;;;;;;;4.48;100.00;96753.09;5075403;28;19925;-66
2023/03/07 00:23:24;;;;;;;;;;;;;;;4.40;100.00;96750.91;5066571;28;20045;-65
2023/03/07 00:25:56;;;;;;;;;;;;;;;4.62;100.00;96758.75;5066932;28;19924;-65
2023/03/07 00:28:22;;;;;;;;;;;;;;;4.61;100.00;96746.59;5049365;28;19985;-66
2023/03/07 00:30:50;;;;;;;;;;;;;;;4.65;100.00;96747.66;5076395;28;19921;-67
2023/03/07 00:33:16;;;;;;;;;;;;;;;4.54;100.00;96746.81;5076118;28;19920;-67
2023/03/07 00:35:42;;;;;;;;;;;;;;;4.67;100.00;96745.59;5057633;28;19992;-66
2023/03/07 00:38:09;;;;;;;;;;;;;;;4.73;100.00;96734.00;5074996;28;19963;-68
2023/03/07 00:40:35;;;;;;;;;;;;;;;4.62;100.00;96733.09;5078407;28;19966;-67
2023/03/07 00:43:01;;;;;;;;;;;;;;;4.61;100.00;96739.44;5060299;28;20023;-67
2023/03/07 00:45:27;;;;;;;;;;;;;;;4.60;100.00;96734.41;5074557;28;20019;-68
2023/03/07 00:47:56;;;;;;;;;;;;;;;4.60;100.00;96729.94;5075173;28;19970;-67
2023/03/07 00:50:23;;;;;;;;;;;;;;;4.55;100.00;96723.81;5060546;28;19928;-67
2023/03/07 00:52:49;;;;;;;;;;;;;;;4.57;100.00;96725.16;5078190;28;19952;-67
2023/03/07 00:55:15;;;;;;;;;;;;;;;4.53;100.00;96720.59;5075702;28;19980;-67
2023/03/07 00:57:42;;;;;;;;;;;;;;;4.46;100.00;96722.66;5074493;28;19987;-68
2023/03/07 01:00:10;;;;;;;;;;;;;;;4.48;100.00;96715.28;5078569;28;20655;-65
2023/03/07 01:02:36;;;;;;;;;;;;;;;4.58;100.00;96702.16;5059912;28;19978;-67
2023/03/07 01:05:05;;;;;;;;;;;;;;;4.57;100.00;96697.91;5077295;28;19966;-66
2023/03/07 01:07:31;;;;;;;;;;;;;;;4.47;100.00;96697.81;5074177;28;19985;-66
2023/03/07 01:09:57;;;;;;;;;;;;;;;4.59;100.00;96703.72;5074404;28;19932;-65
2023/03/07 01:12:24;;;;;;;;;;;;;;;4.57;100.00;96690.78;5077749;28;19980;-66
2023/03/07 01:14:50;;;;;;;;;;;;;;;4.55;100.00;96686.81;5077823;28;19992;-66
2023/03/07 01:17:16;;;;;;;;;;;;;;;4.50;100.00;96689.38;5075215;28;19931;-65
2023/03/07 01:19:43;;;;;;;;;;;;;;;4.45;100.00;96694.66;5074387;28;19971;-67
2023/03/07 01:22:10;;;;;;;;;;;;;;;4.51;100.00;96691.78;5075621;28;20052;-65
2023/03/07 01:24:38;;;;;;;;;;;;;;;4.45;100.00;96695.44;5076982;28;19975;-67
2023/03/07 01:27:05;;;;;;;;;;;;;;;4.40;100.00;96684.81;5058836;28;19960;-67
2023/03/07 01:29:31;;;;;;;;;;;;;;;4.42;100.00;96681.94;5074035;28;19928;-66
2023/03/07 01:31:57;;;;;;;;;;;;;;;4.45;100.00;96678.78;5067380;28;19992;-67
2023/03/07 01:34:24;;;;;;;;;;;;;;;4.39;100.00;96666.59;5060060;28;19931;-67
2023/03/07 01:36:50;;;;;;;;;;;;;;;4.41;100.00;96667.94;5059451;28;20076;-66
2023/03/07 01:39:18;;;;;;;;;;;;;;;4.48;100.00;96662.44;5074764;28;19966;-67
2023/03/07 01:41:44;;;;;;;;;;;;;;;4.50;100.00;96665.59;5073732;28;19999;-65
2023/03/07 01:44:14;;;;;;;;;;;;;;;4.47;100.00;96655.53;5075418;28;19960;-66
2023/03/07 01:46:48;;;;;;;;;;;;;;;4.42;100.00;96645.75;5077003;28;19980;-67
2023/03/07 01:49:20;;;;;;;;;;;;;;;4.37;100.00;96645.69;5057007;28;19980;-67
2023/03/07 01:51:49;;;;;;;;;;;;;;;4.48;100.00;96641.28;5073259;28;19968;-66
2023/03/07 01:54:17;;;;;;;;;;;;;;;4.46;100.00;96644.16;5075660;28;19925;-67
2023/03/07 01:56:46;;;;;;;;;;;;;;;4.39;100.00;96645.44;5076993;28;20007;-66
2023/03/07 01:59:13;;;;;;;;;;;;;;;4.51;100.00;96638.94;5075264;28;20004;-66
2023/03/07 02:01:40;;;;;;;;;;;;;;;4.51;100.00;96635.47;5076325;28;19928;-66
2023/03/07 02:04:10;;;;;;;;;;;;;;;4.50;100.00;96644.44;5074530;28;19948;-65
2023/03/07 02:06:37;;;;;;;;;;;;;;;4.48;100.00;96626.22;5076909;28;20203;-67
2023/03/07 02:09:06;;;;;;;;;;;;;;;4.43;100.00;96630.66;5076279;28;19924;-66
2023/03/07 03:33:52;;;;;;;;;;;;;;;4.18;100.00;96608.31;5075989;28;19920;-66
2023/03/07 03:36:19;;;;;;;;;;;;;;;4.12;100.00;96611.16;5078669;28;19921;-68
2023/03/07 03:38:45;;;;;;;;;;;;;;;4.12;100.00;96606.66;5079925;28;19921;-68
2023/03/07 03:41:15;;;;;;;;;;;;;;;4.09;100.00;96607.19;5077655;28;20006;-66
2023/03/07 03:43:42;;;;;;;;;;;;;;;4.07;100.00;96604.00;5076294;28;19924;-68
2023/03/07 03:46:08;;;;;;;;;;;;;;;4.06;100.00;96602.41;5075551;28;20022;-65
2023/03/07 03:48:35;;;;;;;;;;;;;;;4.05;100.00;96606.13;5079395;28;19924;-65
2023/03/07 03:51:04;;;;;;;;;;;;;;;4.08;100.00;96595.03;5061242;28;19987;-67
2023/03/07 03:53:31;;;;;;;;;;;;;;;4.13;100.00;96591.63;5075947;28;19935;-66
2023/03/07 03:56:04;;;;;;;;;;;;;;;4.02;100.00;96596.06;5057719;28;19925;-66
2023/03/07 03:58:31;;;;;;;;;;;;;;;4.14;100.00;96593.22;5058023;28;19968;-67
2023/03/07 04:00:57;;;;;;;;;;;;;;;4.09;100.00;96595.81;5065856;28;19992;-67
2023/03/07 04:03:24;;;;;;;;;;;;;;;4.15;100.00;96577.09;5075472;28;20413;-67
2023/03/07 04:05:50;;;;;;;;;;;;;;;4.13;100.00;96576.56;5075207;28;19921;-66
2023/03/07 04:08:18;;;;;;;;;;;;;;;4.13;100.00;96573.94;5077728;28;19997;-64
2023/03/07 04:10:44;;;;;;;;;;;;;;;4.16;100.00;96584.00;5078705;28;19928;-66
2023/03/07 04:13:10;;;;;;;;;;;;;;;4.10;100.00;96582.38;5077265;28;19925;-66
2023/03/07 04:15:37;;;;;;;;;;;;;;;4.14;100.00;96570.25;5075366;28;19925;-66
2023/03/07 04:18:03;;;;;;;;;;;;;;;4.09;100.00;96559.63;5075872;28;19999;-66
2023/03/07 04:20:29;;;;;;;;;;;;;;;4.17;100.00;96566.31;5079423;28;19982;-66
2023/03/07 04:22:56;;;;;;;;;;;;;;;4.17;100.00;96561.00;5060755;28;19948;-66
2023/03/07 04:25:23;;;;;;;;;;;;;;;4.11;100.00;96568.13;5075395;28;19931;-66
2023/03/07 04:27:50;;;;;;;;;;;;;;;4.15;100.00;96558.59;5075309;28;19956;-67
2023/03/07 04:30:16;;;;;;;;;;;;;;;4.23;100.00;96557.34;5080470;28;19924;-68
2023/03/07 04:32:42;;;;;;;;;;;;;;;4.19;100.00;96561.53;5078322;28;20023;-68
2023/03/07 04:35:09;;;;;;;;;;;;;;;4.19;100.00;96559.69;5076971;28;19984;-68
2023/03/07 04:37:35;;;;;;;;;;;;;;;4.22;100.00;96559.19;5074934;28;20079;-66
2023/03/07 04:40:02;;;;;;;;;;;;;;;4.20;100.00;96550.75;5075109;28;20003;-66
2023/03/07 04:42:29;;;;;;;;;;;;;;;4.15;100.00;96558.59;5078483;28;19942;-67
2023/03/07 04:44:56;;;;;;;;;;;;;;;4.15;100.00;96555.97;5078330;28;20023;-69
2023/03/07 04:47:22;;;;;;;;;;;;;;;4.12;100.00;96558.31;5075140;28;19952;-66
2023/03/07 04:49:48;;;;;;;;;;;;;;;4.18;100.00;96558.09;5074549;28;19992;-67
2023/03/07 04:52:14;;;;;;;;;;;;;;;4.23;100.00;96560.78;5076639;28;19984;-66
2023/03/07 04:54:41;;;;;;;;;;;;;;;4.19;100.00;96562.34;5077881;28;19924;-66
2023/03/07 04:57:07;;;;;;;;;;;;;;;4.12;100.00;96563.59;5058720;28;20018;-66
2023/03/07 04:59:38;;;;;;;;;;;;;;;4.11;100.00;96560.19;5073249;28;19929;-67
2023/03/07 05:02:04;;;;;;;;;;;;;;;4.11;100.00;96562.84;5056808;28;19928;-68
2023/03/07 05:04:31;;;;;;;;;;;;;;;4.18;100.00;96560.75;5074495;28;20274;-67
2023/03/07 05:06:57;;;;;;;;;;;;;;;4.20;100.00;96566.59;5056365;28;20019;-66
2023/03/07 05:09:23;;;;;;;;;;;;;;;4.21;100.00;96564.72;5059594;28;19928;-67
2023/03/07 05:11:50;;;;;;;;;;;;;;;4.26;100.00;96564.75;5077677;28;19948;-65
2023/03/07 05:14:16;;;;;;;;;;;;;;;4.26;100.00;96562.13;5075233;28;20641;-65
2023/03/07 05:16:44;;;;;;;;;;;;;;;4.19;100.00;96554.41;5074101;28;19925;-66
2023/03/07 05:19:12;;;;;;;;;;;;;;;4.21;100.00;96559.44;5074659;28;19920;-65
2023/03/07 05:21:39;;;;;;;;;;;;;;;4.16;100.00;96565.50;5059535;28;19920;-66
2023/03/07 05:24:06;;;;;;;;;;;;;;;4.13;100.00;96555.44;5076412;28;19960;-67
2023/03/07 05:26:32;;;;;;;;;;;;;;;4.23;100.00;96557.34;5072387;28;19921;-68
2023/03/07 05:28:59;;;;;;;;;;;;;;;4.16;100.00;96565.50;5073956;28;19928;-67
2023/03/07 05:31:25;;;;;;;;;;;;;;;4.20;100.00;96560.50;5076753;28;20029;-65
2023/03/07 05:33:53;;;;;;;;;;;;;;;3.99;100.00;96551.63;5074096;28;19940;-66
2023/03/07 05:36:20;;;;;;;;;;;;;;;4.09;100.00;96558.81;5076559;28;19936;-66
2023/03/07 05:38:46;;;;;;;;;;;;;;;3.98;100.00;96554.53;5077259;28;19924;-66
2023/03/07 05:41:12;;;;;;;;;;;;;;;4.04;100.00;96551.69;5076097;28;19924;-68
2023/03/07 05:43:39;;;;;;;;;;;;;;;4.11;100.00;96548.81;5074360;28;19936;-66
2023/03/07 05:46:05;;;;;;;;;;;;;;;3.98;100.00;96557.97;5056004;28;19952;-67
2023/03/07 05:48:32;;;;;;;;;;;;;;;4.01;100.00;96557.47;5077154;28;19925;-67
2023/03/07 05:51:00;;;;;;;;;;;;;;;3.90;100.00;96555.78;5059663;28;19958;-65
2023/03/07 05:53:26;;;;;;;;;;;;;;;3.99;100.00;96549.00;5065422;28;19952;-67
2023/03/07 05:55:53;;;;;;;;;;;;;;;3.93;100.00;96544.72;5065240;28;19971;-67
2023/03/07 05:58:19;;;;;;;;;;;;;;;3.93;100.00;96542.09;5064975;28;19924;-66
2023/03/07 06:00:45;;;;;;;;;;;;;;;3.91;100.00;96546.84;5074458;28;19996;-65
2023/03/07 06:03:12;;;;;;;;;;;;;;;3.85;100.00;96542.56;5057238;28;19972;-65
2023/03/07 06:05:38;;;;;;;;;;;;;;;3.85;100.00;96544.41;5055392;28;20019;-66
2023/03/07 06:08:06;;;;;;;;;;;;;;;3.88;100.00;96542.06;5074010;28;19929;-65
2023/03/07 06:10:33;;;;;;;;;;;;;;;3.90;100.00;96539.19;5076507;28;19966;-66
2023/03/07 06:13:00;;;;;;;;;;;;;;;3.92;100.00;96548.44;5077029;28;19992;-66
2023/03/07 06:15:26;;;;;;;;;;;;;;;3.91;100.00;96541.56;5073314;28;19925;-67
2023/03/07 06:17:52;;;;;;;;;;;;;;;3.88;100.00;96544.69;5073118;28;19967;-66
2023/03/07 06:20:20;;;;;;;;;;;;;;;4.00;100.00;96534.75;5075794;28;20011;-67
2023/03/07 06:22:46;;;;;;;;;;;;;;;3.83;100.00;96538.59;5076966;28;19931;-68
2023/03/07 06:25:15;;;;;;;;;;;;;;;3.82;100.00;96537.78;5075230;28;19993;-67
2023/03/07 06:27:42;;;;;;;;;;;;;;;3.80;100.00;96530.13;5073219;28;19996;-70
2023/03/07 06:30:08;;;;;;;;;;;;;;;3.82;100.00;96537.78;5077088;28;20747;-67
2023/03/07 06:32:35;;;;;;;;;;;;;;;3.83;100.00;96539.38;5058542;28;20027;-67
2023/03/07 06:35:02;;;;;;;;;;;;;;;3.89;100.00;96537.56;5058290;28;19950;-65
2023/03/07 06:37:28;;;;;;;;;;;;;;;3.74;100.00;96536.41;5073172;28;19947;-66
2023/03/07 06:39:55;;;;;;;;;;;;;;;3.69;100.00;96532.94;5073021;28;20003;-70
2023/03/07 06:42:22;;;;;;;;;;;;;;;3.79;100.00;96543.56;5075904;28;20556;-68
2023/03/07 06:44:49;;;;;;;;;;;;;;;3.77;100.00;96540.41;5077131;28;19960;-68
2023/03/07 06:47:15;;;;;;;;;;;;;;;3.71;100.00;96530.84;5074063;28;19955;-64
2023/03/07 06:49:41;;;;;;;;;;;;;;;3.65;100.00;96532.63;5072864;28;19980;-67
2023/03/07 06:52:08;;;;;;;;;;;;;;;3.70;100.00;96539.81;5072846;28;19955;-68
2023/03/07 06:54:34;;;;;;;;;;;;;;;3.80;100.00;96530.13;5076684;28;19931;-67
2023/03/07 06:57:00;;;;;;;;;;;;;;;3.81;100.00;96537.00;5076598;28;19963;-67
2023/03/07 06:59:28;;;;;;;;;;;;;;;3.76;100.00;96536.16;5073288;28;19924;-68
2023/03/07 07:01:54;;;;;;;;;;;;;;;3.88;100.00;96535.97;5076095;28;19929;-69
2023/03/07 07:04:21;;;;;;;;;;;;;;;3.80;100.00;96542.53;5075699;28;19924;-66
2023/03/07 07:06:47;;;;;;;;;;;;;;;3.78;100.00;96544.63;5076092;28;19925;-68
2023/03/07 07:09:14;;;;;;;;;;;;;;;3.81;100.00;96546.75;5056379;28;19969;-68
2023/03/07 07:11:40;;;;;;;;;;;;;;;3.97;100.00;96547.66;5055169;28;19992;-66
2023/03/07 07:14:06;;;;;;;;;;;;;;;3.97;100.00;96547.66;5073431;28;20456;-67
2023/03/07 07:16:35;;;;;;;;;;;;;;;4.08;100.00;96552.78;5076339;28;19972;-67
2023/03/07 07:19:01;;;;;;;;;;;;;;;3.86;100.00;96557.38;5076123;28;19924;-67
2023/03/07 07:21:28;;;;;;;;;;;;;;;4.06;100.00;96539.00;5073287;28;19925;-67
2023/03/07 07:23:55;;;;;;;;;;;;;;;3.85;100.00;96541.75;5076247;28;19991;-67
2023/03/07 07:26:23;;;;;;;;;;;;;;;3.95;100.00;96544.47;5079319;28;19967;-67
2023/03/07 07:28:49;;;;;;;;;;;;;;;3.93;100.00;96543.94;5079529;28;19984;-68
2023/03/07 07:31:16;;;;;;;;;;;;;;;3.83;100.00;96544.66;5080658;28;19964;-68
2023/03/07 07:33:45;;;;;;;;;;;;;;;3.93;100.00;96539.44;5058399;28;19925;-68
2023/03/07 07:36:12;;;;;;;;;;;;;;;3.88;100.00;96547.34;5077908;28;19925;-69
2023/03/07 07:38:38;;;;;;;;;;;;;;;4.05;100.00;96534.78;5079471;28;19928;-70
2023/03/07 07:41:05;;;;;;;;;;;;;;;3.97;100.00;96534.44;5078699;28;19947;-68
2023/03/07 07:43:31;;;;;;;;;;;;;;;4.05;100.00;96542.72;5074314;28;20181;-70
2023/03/07 07:45:58;;;;;;;;;;;;;;;4.01;100.00;96532.91;5075680;28;19937;-66
2023/03/07 07:48:24;;;;;;;;;;;;;;;3.97;100.00;96542.38;5079174;28;19924;-68
2023/03/07 07:50:52;;;;;;;;;;;;;;;4.08;100.00;96542.22;5079096;28;19935;-68
2023/03/07 07:53:18;;;;;;;;;;;;;;;4.14;100.00;96541.19;5076729;28;19956;-64
2023/03/07 07:55:44;;;;;;;;;;;;;;;4.13;100.00;96550.16;5075817;28;20016;-68
2023/03/07 07:58:11;;;;;;;;;;;;;;;4.09;100.00;96549.06;5077238;28;19944;-68
2023/03/07 08:00:37;;;;;;;;;;;;;;;4.10;100.00;96552.50;5064137;28;19999;-67
2023/03/07 08:03:04;;;;;;;;;;;;;;;4.21;100.00;96552.31;5078525;28;19948;-68
2023/03/07 08:05:30;;;;;;;;;;;;;;;4.10;100.00;96552.50;5074174;28;20351;-66
2023/03/07 08:07:58;;;;;;;;;;;;;;;4.01;100.00;96538.97;5075370;28;19925;-65
2023/03/07 08:10:24;;;;;;;;;;;;;;;4.06;100.00;96541.66;5077351;28;19997;-66
2023/03/07 08:12:51;;;;;;;;;;;;;;;4.01;100.00;96549.56;5079042;28;19931;-67
2023/03/07 08:15:20;;;;;;;;;;;;;;;4.13;100.00;96547.50;5076240;28;19925;-67
2023/03/07 08:17:46;;;;;;;;;;;;;;;4.08;100.00;96536.94;5075142;28;20001;-67
2023/03/07 08:20:13;;;;;;;;;;;;;;;3.99;100.00;96543.72;5076609;28;20895;-68
2023/03/07 08:22:40;;;;;;;;;;;;;;;4.02;100.00;96537.94;5060871;28;20061;-68
2023/03/07 08:25:08;;;;;;;;;;;;;;;4.18;100.00;96542.25;5077651;28;19976;-67
2023/03/07 08:27:34;;;;;;;;;;;;;;;4.13;100.00;96550.16;5075119;28;19928;-67
2023/03/07 08:30:00;;;;;;;;;;;;;;;4.01;100.00;96546.91;5078038;28;19959;-67
2023/03/07 08:32:27;;;;;;;;;;;;;;;4.14;100.00;96540.38;5078514;28;19955;-66
2023/03/07 08:34:53;;;;;;;;;;;;;;;4.10;100.00;96536.66;5078436;28;19987;-66
2023/03/07 08:37:20;;;;;;;;;;;;;;;4.27;100.00;96542.59;5075448;28;19935;-65
2023/03/07 08:39:47;;;;;;;;;;;;;;;4.26;100.00;96539.13;5074912;28;19925;-66
2023/03/07 08:42:14;;;;;;;;;;;;;;;4.14;100.00;96543.84;5076527;28;20600;-66
2023/03/07 08:44:41;;;;;;;;;;;;;;;4.29;100.00;96543.91;5078378;28;19924;-67
2023/03/07 08:47:07;;;;;;;;;;;;;;;4.30;100.00;96531.50;5076996;28;19932;-67
2023/03/07 08:49:33;;;;;;;;;;;;;;;4.38;100.00;96533.66;5073303;28;19929;-66
2023/03/07 08:52:00;;;;;;;;;;;;;;;4.32;100.00;96527.53;5074881;28;19984;-67
2023/03/07 08:54:27;;;;;;;;;;;;;;;4.27;100.00;96524.84;5056864;28;19988;-67
2023/03/07 08:56:54;;;;;;;;;;;;;;;4.31;100.00;96530.44;5074439;28;19921;-71
2023/03/07 08:59:22;;;;;;;;;;;;;;;4.26;100.00;96527.78;5077048;28;19929;-67
2023/03/07 09:01:48;;;;;;;;;;;;;;;4.33;100.00;96526.47;5079496;28;19939;-67
2023/03/07 09:04:14;;;;;;;;;;;;;;;4.23;100.00;96520.34;5076427;28;19999;-67
2023/03/07 09:06:41;;;;;;;;;;;;;;;4.43;100.00;96522.28;5077765;28;20419;-68
2023/03/07 09:09:07;;;;;;;;;;;;;;;4.30;100.00;96513.78;5059033;28;19971;-69
2023/03/07 09:11:33;;;;;;;;;;;;;;;4.43;100.00;96514.34;5074503;28;19959;-67
2023/03/07 09:14:00;;;;;;;;;;;;;;;4.49;100.00;96518.66;5074298;28;19956;-68
2023/03/07 09:16:27;;;;;;;;;;;;;;;4.50;100.00;96512.28;5066239;28;19929;-67
2023/03/07 09:18:54;;;;;;;;;;;;;;;4.39;100.00;96515.94;5066067;28;19967;-67
2023/03/07 09:21:20;;;;;;;;;;;;;;;4.33;100.00;96510.63;5065943;28;19936;-64
2023/03/07 09:23:46;;;;;;;;;;;;;;;4.44;100.00;96515.97;5065795;28;19925;-67
2023/03/07 09:26:13;;;;;;;;;;;;;;;4.60;100.00;96514.97;5065709;28;19931;-67
2023/03/07 09:28:39;;;;;;;;;;;;;;;4.68;100.00;96506.53;5065697;28;19959;-65
2023/03/07 09:31:09;;;;;;;;;;;;;;;4.49;100.00;96510.72;5077073;28;19925;-65
2023/03/07 09:33:37;;;;;;;;;;;;;;;4.70;100.00;96507.09;5074183;28;19931;-68
2023/03/07 09:36:04;;;;;;;;;;;;;;;4.55;100.00;96496.47;5074420;28;19948;-67
2023/03/07 09:38:30;;;;;;;;;;;;;;;4.61;100.00;96498.84;5077386;28;19964;-67
2023/03/07 09:41:01;;;;;;;;;;;;;;;4.66;100.00;96492.78;5077400;28;19970;-67
2023/03/07 09:43:34;;;;;;;;;;;;;;;4.64;100.00;96498.31;5074183;28;19921;-68
2023/03/07 09:46:06;;;;;;;;;;;;;;;4.64;100.00;96489.63;5073396;28;20547;-66
2023/03/07 09:48:53;;;;;;;;;;;;;;;4.87;100.00;96491.78;5077775;28;19959;-68
2023/03/07 09:51:24;;;;;;;;;;;;;;;4.62;100.00;96481.94;5069233;28;19924;-67
2023/03/07 09:53:52;;;;;;;;;;;;;;;4.62;100.00;96478.50;5073637;28;19984;-67
2023/03/07 09:56:21;;;;;;;;;;;;;;;4.74;100.00;96479.84;5075983;28;19948;-67
2023/03/07 09:58:51;;;;;;;;;;;;;;;4.73;100.00;96465.06;5076894;28;19987;-68
2023/03/07 10:01:21;;;;;;;;;;;;;;;4.79;100.00;96471.16;5077565;28;19967;-67
2023/03/07 10:03:51;;;;;;;;;;;;;;;4.92;100.00;96472.50;5073388;28;20023;-66
2023/03/07 10:06:23;;;;;;;;;;;;;;;4.84;100.00;96458.72;5075821;28;19925;-66
2023/03/07 10:08:51;;;;;;;;;;;;;;;4.79;100.00;96457.94;5076888;28;20015;-68
2023/03/07 10:11:24;;;;;;;;;;;;;;;4.90;100.00;96460.31;5074221;28;19983;-66
2023/03/07 10:13:58;;;;;;;;;;;;;;;4.93;100.00;96459.00;5073563;28;19925;-67
2023/03/07 10:16:26;;;;;;;;;;;;;;;4.95;100.00;96448.97;5059199;28;19989;-66
2023/03/07 10:19:02;;;;;;;;;;;;;;;4.94;100.00;96446.56;5077119;28;19927;-68
2023/03/07 10:21:33;;;;;;;;;;;;;;;5.02;100.00;96446.03;5065380;28;19980;-67
2023/03/07 10:24:15;;;;;;;;;;;;;;;4.99;100.00;96436.00;5047648;28;19927;-66
2023/03/07 10:26:47;;;;;;;;;;;;;;;5.04;100.00;96433.38;5065283;28;19982;-65
2023/03/07 10:29:15;;;;;;;;;;;;;;;5.12;100.00;96441.56;5065105;28;19921;-68
2023/03/07 10:31:45;;;;;;;;;;;;;;;5.11;100.00;96444.47;5076381;28;19920;-67
2023/03/07 10:34:15;;;;;;;;;;;;;;;5.23;100.00;96439.72;5056803;28;19992;-66
2023/03/07 10:36:43;;;;;;;;;;;;;;;5.29;100.00;96430.75;5076523;28;19925;-66
2023/03/07 10:39:21;;;;;;;;;;;;;;;5.28;100.00;96429.94;5075446;28;19925;-67
2023/03/07 10:41:47;;;;;;;;;;;;;;;5.29;100.00;96422.78;5054976;28;20265;-66
2023/03/07 10:44:16;;;;;;;;;;;;;;;5.33;100.00;96421.19;5074996;28;19951;-68
2023/03/07 10:46:43;;;;;;;;;;;;;;;5.32;100.00;96416.97;5058391;28;20351;-68
2023/03/07 10:49:14;;;;;;;;;;;;;;;5.40;100.00;96411.13;5075081;28;19921;-68
2023/03/07 10:51:49;;;;;;;;;;;;;;;5.45;100.00;96408.47;5071928;28;19975;-67
2023/03/07 10:54:18;;;;;;;;;;;;;;;5.48;100.00;96405.28;5074569;28;19925;-66
2023/03/07 10:56:59;;;;;;;;;;;;;;;5.56;100.00;96398.66;5077408;28;19980;-68
2023/03/07 10:59:26;;;;;;;;;;;;;;;5.72;100.00;96403.69;5068200;28;19971;-66
2023/03/07 11:01:54;;;;;;;;;;;;;;;5.74;100.00;96390.16;5079837;28;19963;-67
2023/03/07 11:04:21;;;;;;;;;;;;;;;5.85;100.00;96387.22;5079354;28;19984;-68
2023/03/07 11:06:51;;;;;;;;;;;;;;;5.76;100.00;96382.72;5080481;28;20129;-67
2023/03/07 11:09:22;;;;;;;;;;;;;;;5.85;100.00;96370.50;5077726;28;19928;-67
2023/03/07 11:11:50;;;;;;;;;;;;;;;5.88;100.00;96360.19;5076655;28;19920;-66
2023/03/07 11:14:17;;;;;;;;;;;;;;;6.20;100.00;96354.50;5060708;28;19970;-66
2023/03/07 11:16:48;;;;;;;;;;;;;;;6.42;100.00;96349.63;5079777;28;19930;-69
2023/03/07 11:19:26;;;;;;;;;;;;;;;6.57;100.00;96355.88;5077884;28;19925;-66
2023/03/07 11:21:53;;;;;;;;;;;;;;;6.71;100.00;96341.75;5058404;28;19959;-68
2023/03/07 11:24:24;;;;;;;;;;;;;;;6.85;100.00;96336.59;5078744;28;20397;-69
2023/03/07 11:26:53;;;;;;;;;;;;;;;6.65;100.00;96329.59;5079759;28;19967;-69
2023/03/07 11:29:19;;;;;;;;;;;;;;;6.84;100.00;96327.84;5077098;28;19963;-67
2023/03/07 11:31:52;;;;;;;;;;;;;;;6.71;100.00;96319.75;5079364;28;20246;-69
2023/03/07 11:34:30;;;;;;;;;;;;;;;6.76;100.00;96309.88;5076921;28;19932;-73
2023/03/07 11:37:02;;;;;;;;;;;;;;;6.62;100.00;96316.91;5061221;28;19956;-72
2023/03/07 11:39:34;;;;;;;;;;;;;;;6.67;100.00;96314.19;5076449;28;19931;-69
2023/03/07 11:42:04;;;;;;;;;;;;;;;6.85;100.00;96313.53;5075834;28;20015;-68
2023/03/07 11:44:37;;;;;;;;;;;;;;;6.98;100.00;96302.28;5075805;28;19980;-67
2023/03/07 11:47:14;;;;;;;;;;;;;;;7.03;100.00;96298.75;5057993;28;19925;-68
2023/03/07 11:49:45;;;;;;;;;;;;;;;6.87;100.00;96294.69;5061467;28;19925;-67
2023/03/07 11:52:34;;;;;;;;;;;;;;;6.84;100.00;96292.59;5077835;28;20065;-67
2023/03/07 11:55:10;;;;;;;;;;;;;;;6.79;100.00;96295.25;5075641;28;19992;-67
2023/03/07 11:57:46;;;;;;;;;;;;;;;6.66;100.00;96298.53;5078967;28;19920;-66
2023/03/07 12:00:22;;;;;;;;;;;;;;;6.74;100.00;96282.84;5079017;28;19924;-68
2023/03/07 12:03:13;;;;;;;;;;;;;;;6.67;100.00;96285.00;5060862;28;19947;-66
2023/03/07 12:05:47;;;;;;;;;;;;;;;6.63;100.00;96275.22;5056445;28;19940;-68
2023/03/07 12:08:22;;;;;;;;;;;;;;;6.54;100.00;96272.38;5066737;28;19963;-66
2023/03/07 12:10:58;;;;;;;;;;;;;;;6.53;100.00;96270.03;5067069;28;19921;-67
2023/03/07 12:13:31;;;;;;;;;;;;;;;6.62;100.00;96269.16;5067070;28;19948;-66
2023/03/07 12:16:02;;;;;;;;;;;;;;;6.55;100.00;96267.88;5066921;28;19993;-65
2023/03/07 12:18:41;;;;;;;;;;;;;;;6.63;100.00;96259.31;5075072;28;19932;-70
2023/03/07 12:21:16;;;;;;;;;;;;;;;6.53;100.00;96248.81;5076031;28;19971;-67
2023/03/07 12:23:47;;;;;;;;;;;;;;;6.56;100.00;96245.59;5060613;28;19988;-69
2023/03/07 12:26:17;;;;;;;;;;;;;;;6.69;100.00;96236.97;5076772;28;19920;-69
2023/03/07 12:28:45;;;;;;;;;;;;;;;6.68;100.00;96238.88;5075088;28;19964;-67
2023/03/07 12:31:15;;;;;;;;;;;;;;;6.71;100.00;96245.47;5065386;28;19935;-67
2023/03/07 12:33:54;;;;;;;;;;;;;;;6.65;100.00;96242.06;5074884;28;19924;-68
2023/03/07 12:36:25;;;;;;;;;;;;;;;6.78;100.00;96243.25;5078145;28;19955;-67
2023/03/07 12:38:55;;;;;;;;;;;;;;;6.84;100.00;96234.22;5078280;28;19932;-65
2023/03/07 12:41:29;;;;;;;;;;;;;;;6.85;100.00;96227.81;5075610;28;19964;-68
2023/03/07 12:43:58;;;;;;;;;;;;;;;6.91;100.00;96222.19;5074797;28;19967;-65
2023/03/07 12:46:31;;;;;;;;;;;;;;;7.02;100.00;96220.25;5077768;28;19991;-66
2023/03/07 12:49:00;;;;;;;;;;;;;;;6.78;100.00;96220.19;5060417;28;20463;-69
2023/03/07 12:51:29;;;;;;;;;;;;;;;6.80;100.00;96219.91;5065152;28;19985;-69
2023/03/07 12:53:58;;;;;;;;;;;;;;;6.89;99.33;96216.38;5066490;28;19986;-68
2023/03/07 12:56:28;;;;;;;;;;;;;;;7.10;94.72;96219.59;5066240;28;19925;-66
2023/03/07 12:58:57;;;;;;;;;;;;;;;6.97;97.23;96214.97;5056524;28;19967;-67
2023/03/07 13:01:26;;;;;;;;;;;;;;;6.74;100.00;96205.13;5077464;28;19992;-68
2023/03/07 13:03:56;;;;;;;;;;;;;;;6.97;99.96;96204.34;5074344;28;19993;-67
2023/03/07 13:06:23;;;;;;;;;;;;;;;6.87;100.00;96213.19;5077114;28;19924;-69
2023/03/07 13:08:51;;;;;;;;;;;;;;;6.81;100.00;96214.31;5077646;28;19928;-65
2023/03/07 13:11:18;;;;;;;;;;;;;;;6.92;98.02;96204.41;5075476;28;19967;-71
2023/03/07 13:13:57;;;;;;;;;;;;;;;6.91;96.76;96200.16;5074418;28;19935;-66
2023/03/07 13:16:34;;;;;;;;;;;;;;;7.03;97.19;96197.91;5077457;28;19927;-68
2023/03/07 13:19:19;;;;;;;;;;;;;;;7.26;93.07;96194.50;5076830;28;20214;-67
2023/03/07 13:21:46;;;;;;;;;;;;;;;7.15;93.69;96187.69;5073789;28;19967;-67
2023/03/07 13:24:28;;;;;;;;;;;;;;;6.83;97.78;96198.13;5057607;28;20592;-68
2023/03/07 13:26:55;;;;;;;;;;;;;;;6.90;98.96;96198.59;5074721;28;19949;-65
2023/03/07 13:29:37;;;;;;;;;;;;;;;6.87;96.87;96204.47;5074033;28;19935;-68
2023/03/07 13:32:25;;;;;;;;;;;;;;;6.60;98.18;96190.91;5072162;28;20031;-70
2023/03/07 13:34:53;;;;;;;;;;;;;;;6.68;96.50;96199.06;5059065;28;19935;-68
2023/03/07 13:37:46;;;;;;;;;;;;;;;6.87;95.38;96197.28;5056643;28;20190;-67
2023/03/07 13:40:47;;;;;;;;;;;;;;;6.91;94.26;96197.50;5057509;28;19920;-67
2023/03/07 13:43:34;;;;;;;;;;;;;;;7.11;92.89;96192.00;5057506;28;19924;-68
2023/03/07 13:46:00;;;;;;;;;;;;;;;6.82;95.62;96188.59;5055771;28;19928;-68
2023/03/07 13:48:57;;;;;;;;;;;;;;;6.68;96.54;96188.47;5055937;28;19932;-66
2023/03/07 13:51:27;;;;;;;;;;;;;;;6.79;93.86;96194.44;5014855;28;19957;-68
2023/03/07 13:53:55;;;;;;;;;;;;;;;6.86;90.39;96194.91;5063082;28;19920;-72
2023/03/07 13:56:27;;;;;;;;;;;;;;;6.87;89.66;96184.00;5056036;28;19939;-66
2023/03/07 13:58:56;;;;;;;;;;;;;;;6.84;90.22;96184.56;5072355;28;19924;-67
2023/03/07 14:01:24;;;;;;;;;;;;;;;6.96;87.92;96174.38;5072270;28;19924;-67
2023/03/07 14:03:52;;;;;;;;;;;;;;;7.03;87.64;96166.06;5055668;28;19925;-68
2023/03/07 14:06:20;;;;;;;;;;;;;;;7.06;86.07;96174.25;5058082;28;19951;-69
2023/03/07 14:08:49;;;;;;;;;;;;;;;7.04;87.61;96170.31;5058825;28;19955;-68
2023/03/07 14:11:18;;;;;;;;;;;;;;;6.76;91.59;96171.94;5057074;28;19924;-68
2023/03/07 14:13:52;;;;;;;;;;;;;;;7.02;88.01;96172.47;5073736;28;19925;-68
2023/03/07 14:16:27;;;;;;;;;;;;;;;7.05;87.51;96178.00;5076329;28;19925;-66
2023/03/07 14:19:00;;;;;;;;;;;;;;;7.00;86.72;96166.63;5077063;28;20341;-65